Time;durP1;ratioP1;P1;durP2;ratioP2;P2;SDS_P1;SDS_P2;PMS_P1;PMS_P2;Temp;Humidity;BMP_temperature;BMP_pressure;BME280_temperature;BME280_humidity;BME280_pressure;Samples;Min_cycle;Max_cycle;Signal;HPM_P1;HPM_P2
2022/01/27 00:01:06;;;;;;;13.68;10.02;;;;;;;;;;5037127;28;20029;-78
2022/01/27 00:03:47;;;;;;;12.70;10.10;;;;;;;;;;5037883;28;20520;-78
2022/01/27 00:06:15;;;;;;;13.95;9.75;;;;;;;;;;5048423;28;20041;-78
2022/01/27 00:11:14;;;;;;;13.60;11.00;;;;;;;;;;5057104;28;20091;-78
2022/01/27 00:13:54;;;;;;;13.43;10.18;;;;;;;;;;5056560;28;20033;-78
2022/01/27 00:16:24;;;;;;;13.10;10.02;;;;;;;;;;5057016;28;20017;-78
2022/01/27 00:18:51;;;;;;;12.43;9.82;;;;;;;;;;5054716;28;20024;-78
2022/01/27 00:21:21;;;;;;;13.10;9.68;;;;;;;;;;5055501;28;20050;-78
2022/01/27 00:23:48;;;;;;;14.88;10.80;;;;;;;;;;5054708;28;20041;-78
2022/01/27 00:26:14;;;;;;;13.50;9.52;;;;;;;;;;5054872;28;20029;-78
2022/01/27 00:28:41;;;;;;;11.63;9.40;;;;;;;;;;5058343;28;20033;-78
2022/01/27 00:31:08;;;;;;;11.65;9.43;;;;;;;;;;5057249;28;20102;-78
2022/01/27 00:33:34;;;;;;;12.82;9.20;;;;;;;;;;5058012;28;20032;-78
2022/01/27 00:36:00;;;;;;;12.52;9.25;;;;;;;;;;5056966;28;20001;-78
2022/01/27 00:38:27;;;;;;;12.85;9.40;;;;;;;;;;5068311;28;20107;-78
2022/01/27 00:40:55;;;;;;;13.27;9.18;;;;;;;;;;5077571;28;20035;-78
2022/01/27 00:43:21;;;;;;;12.00;9.30;;;;;;;;;;5076624;28;20025;-78
2022/01/27 00:45:47;;;;;;;12.18;9.45;;;;;;;;;;5076261;28;20021;-79
2022/01/27 00:48:15;;;;;;;12.43;9.57;;;;;;;;;;5077873;28;20391;-78
2022/01/27 00:50:42;;;;;;;12.80;9.50;;;;;;;;;;5077364;28;20025;-79
2022/01/27 00:53:24;;;;;;;11.98;9.15;;;;;;;;;;5069864;28;20025;-78
2022/01/27 00:55:53;;;;;;;12.60;9.05;;;;;;;;;;5062519;28;20103;-78
2022/01/27 01:01:00;;;;;;;12.13;9.80;;;;;;;;;;5062027;28;20025;-78
2022/01/27 01:03:32;;;;;;;10.40;9.02;;;;;;;;;;5060119;28;20084;-78
2022/01/27 01:32:52;;;;;;;11.27;8.88;;;;;;;;;;5056093;28;20091;-78
2022/01/27 01:35:26;;;;;;;10.32;8.60;;;;;;;;;;5055192;28;20450;-78
2022/01/27 01:37:53;;;;;;;11.13;8.93;;;;;;;;;;5056675;28;20381;-78
2022/01/27 01:40:19;;;;;;;10.75;8.20;;;;;;;;;;5055381;28;20028;-78
2022/01/27 01:42:45;;;;;;;11.35;8.90;;;;;;;;;;5050415;28;20149;-78
2022/01/27 01:45:12;;;;;;;11.95;8.30;;;;;;;;;;5055417;28;20029;-78
2022/01/27 01:47:39;;;;;;;11.55;8.70;;;;;;;;;;5055901;28;20036;-78
2022/01/27 01:50:06;;;;;;;12.23;8.80;;;;;;;;;;5053943;28;20021;-78
2022/01/27 01:52:32;;;;;;;11.60;8.57;;;;;;;;;;5054462;28;20036;-78
2022/01/27 01:54:58;;;;;;;11.32;7.82;;;;;;;;;;5055844;28;20021;-78
2022/01/27 01:57:25;;;;;;;9.73;7.72;;;;;;;;;;5055830;28;20481;-78
2022/01/27 01:59:51;;;;;;;10.98;7.95;;;;;;;;;;5056909;28;20032;-78
2022/01/27 02:02:17;;;;;;;11.18;7.93;;;;;;;;;;5057125;28;20036;-78
2022/01/27 02:04:45;;;;;;;9.93;8.10;;;;;;;;;;5055631;28;20025;-78
2022/01/27 02:18:06;;;;;;;10.32;7.30;;;;;;;;;;5055948;28;20068;-78
2022/01/27 02:20:33;;;;;;;9.45;7.30;;;;;;;;;;5055797;28;20028;-78
2022/01/27 02:23:00;;;;;;;8.70;7.10;;;;;;;;;;5056579;28;20021;-78
2022/01/27 02:25:26;;;;;;;9.70;7.20;;;;;;;;;;5056182;28;20032;-78
2022/01/27 02:27:53;;;;;;;10.23;7.70;;;;;;;;;;5057362;28;20025;-78
2022/01/27 02:30:19;;;;;;;9.10;7.32;;;;;;;;;;5057116;28;20025;-78
2022/01/27 02:32:45;;;;;;;8.30;6.85;;;;;;;;;;5056415;28;20033;-78
2022/01/27 02:35:11;;;;;;;7.47;6.35;;;;;;;;;;5056350;28;20052;-78
2022/01/27 02:37:37;;;;;;;9.38;7.10;;;;;;;;;;5055741;28;20028;-78
2022/01/27 02:40:04;;;;;;;9.07;7.03;;;;;;;;;;5055608;28;20028;-78
2022/01/27 02:42:34;;;;;;;8.68;7.18;;;;;;;;;;5057014;28;20037;-78
2022/01/27 02:45:13;;;;;;;9.20;7.03;;;;;;;;;;5036449;28;20045;-78
2022/01/27 02:47:39;;;;;;;9.95;7.07;;;;;;;;;;5048683;28;20033;-78
2022/01/27 02:50:06;;;;;;;8.95;6.68;;;;;;;;;;5056426;28;20024;-78
2022/01/27 02:52:33;;;;;;;8.02;6.35;;;;;;;;;;5056588;28;20025;-78
2022/01/27 02:54:59;;;;;;;7.97;6.50;;;;;;;;;;5056903;28;20037;-79
2022/01/27 02:57:25;;;;;;;8.68;6.80;;;;;;;;;;5056162;28;20033;-78
2022/01/27 02:59:53;;;;;;;7.47;6.38;;;;;;;;;;5057437;28;20064;-78
2022/01/27 03:02:22;;;;;;;8.05;6.22;;;;;;;;;;5054225;28;20396;-80
2022/01/27 03:04:48;;;;;;;8.30;6.07;;;;;;;;;;5058052;28;20025;-78
2022/01/27 03:07:15;;;;;;;7.57;6.60;;;;;;;;;;5057199;28;20029;-78
2022/01/27 03:09:42;;;;;;;7.93;5.93;;;;;;;;;;5056657;28;20403;-78
2022/01/27 03:12:10;;;;;;;8.68;6.55;;;;;;;;;;5055192;28;20475;-78
2022/01/27 03:14:37;;;;;;;8.05;6.20;;;;;;;;;;5053966;28;20116;-78
2022/01/27 03:17:04;;;;;;;6.47;5.53;;;;;;;;;;5053154;28;20087;-78
2022/01/27 03:19:30;;;;;;;7.88;6.15;;;;;;;;;;5066464;28;20038;-78
2022/01/27 03:21:57;;;;;;;7.63;6.43;;;;;;;;;;5075070;28;20075;-78
2022/01/27 03:24:24;;;;;;;8.38;6.15;;;;;;;;;;5073899;28;20028;-78
2022/01/27 03:26:51;;;;;;;7.40;6.15;;;;;;;;;;5075862;28;20028;-79
2022/01/27 03:29:18;;;;;;;8.00;5.50;;;;;;;;;;5077953;28;20020;-78
2022/01/27 03:31:46;;;;;;;7.25;5.90;;;;;;;;;;5077160;28;20024;-78
2022/01/27 03:34:13;;;;;;;8.63;5.80;;;;;;;;;;5077213;28;20027;-78
2022/01/27 03:36:39;;;;;;;6.90;5.65;;;;;;;;;;5077346;28;20020;-78
2022/01/27 03:39:07;;;;;;;7.35;5.88;;;;;;;;;;5076644;28;20126;-78
2022/01/27 03:41:36;;;;;;;8.02;5.78;;;;;;;;;;5074659;28;20120;-78
2022/01/27 03:44:03;;;;;;;6.13;5.40;;;;;;;;;;5076206;28;20028;-78
2022/01/27 03:46:29;;;;;;;6.00;5.25;;;;;;;;;;5077285;28;20450;-78
2022/01/27 03:48:55;;;;;;;6.28;5.25;;;;;;;;;;5075054;28;20028;-78
2022/01/27 03:51:22;;;;;;;7.10;5.35;;;;;;;;;;5064073;28;20474;-78
2022/01/27 03:53:48;;;;;;;7.70;6.30;;;;;;;;;;5053825;28;20021;-78
2022/01/27 03:56:14;;;;;;;8.73;5.50;;;;;;;;;;5054871;28;20021;-78
2022/01/27 03:58:40;;;;;;;6.22;5.03;;;;;;;;;;5054600;28;20033;-78
2022/01/27 04:01:06;;;;;;;6.95;5.57;;;;;;;;;;5054467;28;20104;-78
2022/01/27 04:03:34;;;;;;;6.68;5.30;;;;;;;;;;5053251;28;20547;-78
2022/01/27 04:06:05;;;;;;;6.72;5.68;;;;;;;;;;5052360;28;20025;-78
2022/01/27 04:08:32;;;;;;;6.25;5.65;;;;;;;;;;5054324;28;20076;-78
2022/01/27 04:10:58;;;;;;;6.90;5.57;;;;;;;;;;5054388;28;20032;-78
2022/01/27 04:13:24;;;;;;;7.03;5.25;;;;;;;;;;5054422;28;20408;-78
2022/01/27 04:15:50;;;;;;;7.57;5.22;;;;;;;;;;5053425;28;20178;-78
2022/01/27 04:18:16;;;;;;;7.07;5.78;;;;;;;;;;5054751;28;20021;-79
2022/01/27 04:20:42;;;;;;;7.00;5.60;;;;;;;;;;5054243;28;20029;-78
2022/01/27 04:23:09;;;;;;;5.97;5.10;;;;;;;;;;5057059;28;20488;-78
2022/01/27 04:25:38;;;;;;;5.65;4.70;;;;;;;;;;5072942;28;20052;-78
2022/01/27 04:28:07;;;;;;;7.55;5.50;;;;;;;;;;5071652;28;20109;-78
2022/01/27 04:30:34;;;;;;;6.38;4.88;;;;;;;;;;5073927;28;20108;-78
2022/01/27 04:33:02;;;;;;;6.68;5.68;;;;;;;;;;5072034;28;20021;-78
2022/01/27 04:35:32;;;;;;;6.40;5.22;;;;;;;;;;5073425;28;20021;-78
2022/01/27 04:38:22;;;;;;;6.63;5.50;;;;;;;;;;5072285;28;20017;-78
2022/01/27 04:48:42;;;;;;;6.65;4.75;;;;;;;;;;5073378;28;20049;-79
2022/01/27 04:51:11;;;;;;;6.82;5.25;;;;;;;;;;5072380;28;20036;-79
2022/01/27 04:53:47;;;;;;;5.63;4.75;;;;;;;;;;5060123;28;20496;-79
2022/01/27 04:56:15;;;;;;;6.30;5.03;;;;;;;;;;5053663;28;20082;-80
2022/01/27 04:58:44;;;;;;;8.05;5.63;;;;;;;;;;5051720;28;20115;-77
2022/01/27 05:01:10;;;;;;;7.18;5.32;;;;;;;;;;5053086;28;20381;-77
2022/01/27 05:03:54;;;;;;;6.57;5.03;;;;;;;;;;5051481;28;20070;-77
2022/01/27 05:06:20;;;;;;;7.20;5.28;;;;;;;;;;5052462;28;20110;-77
2022/01/27 05:08:47;;;;;;;6.40;5.25;;;;;;;;;;5052494;28;20027;-77
2022/01/27 05:11:21;;;;;;;6.82;5.60;;;;;;;;;;5052511;28;20098;-77
2022/01/27 05:13:54;;;;;;;7.53;5.45;;;;;;;;;;5052788;28;21989;-77
2022/01/27 05:16:20;;;;;;;5.82;5.03;;;;;;;;;;5056018;28;20108;-77
2022/01/27 05:18:46;;;;;;;7.88;5.80;;;;;;;;;;5043065;28;20033;-78
2022/01/27 05:21:12;;;;;;;7.00;5.35;;;;;;;;;;5039512;28;20018;-78
2022/01/27 05:23:39;;;;;;;8.90;5.90;;;;;;;;;;5038553;28;20041;-78
2022/01/27 05:26:05;;;;;;;7.47;5.57;;;;;;;;;;5039730;28;20037;-78
2022/01/27 05:28:31;;;;;;;7.07;5.78;;;;;;;;;;5054819;28;20052;-78
2022/01/27 05:30:57;;;;;;;6.82;5.80;;;;;;;;;;5059919;28;20025;-79
2022/01/27 05:33:23;;;;;;;9.05;6.40;;;;;;;;;;5059626;28;20021;-80
2022/01/27 05:35:50;;;;;;;7.10;5.80;;;;;;;;;;5057509;28;20496;-80
2022/01/27 05:38:17;;;;;;;7.70;5.88;;;;;;;;;;5056195;28;20021;-80
2022/01/27 05:40:43;;;;;;;7.78;6.00;;;;;;;;;;5060299;28;20024;-80
2022/01/27 05:43:10;;;;;;;7.18;5.78;;;;;;;;;;5059291;28;20099;-80
2022/01/27 05:45:37;;;;;;;8.20;6.60;;;;;;;;;;5058965;28;20024;-79
2022/01/27 05:48:03;;;;;;;8.13;5.57;;;;;;;;;;5059701;28;20033;-80
2022/01/27 05:50:29;;;;;;;7.90;5.80;;;;;;;;;;5058978;28;20025;-80
2022/01/27 05:52:55;;;;;;;7.43;5.75;;;;;;;;;;5049668;28;20040;-80
2022/01/27 05:55:21;;;;;;;9.10;6.28;;;;;;;;;;5037211;28;20029;-80
2022/01/27 05:57:47;;;;;;;6.57;5.85;;;;;;;;;;5037765;28;20548;-80
2022/01/27 06:00:14;;;;;;;8.18;6.20;;;;;;;;;;5044674;28;20104;-80
2022/01/27 06:02:40;;;;;;;8.10;6.35;;;;;;;;;;5056314;28;20025;-80
2022/01/27 06:05:06;;;;;;;10.50;6.38;;;;;;;;;;5056762;28;20086;-80
2022/01/27 06:07:32;;;;;;;7.75;6.28;;;;;;;;;;5057029;28;20036;-80
2022/01/27 06:09:59;;;;;;;8.15;5.90;;;;;;;;;;5057133;28;20025;-79
2022/01/27 06:12:25;;;;;;;8.82;6.03;;;;;;;;;;5054694;28;20101;-80
2022/01/27 06:14:51;;;;;;;11.15;6.63;;;;;;;;;;5055235;28;20025;-79
2022/01/27 06:17:17;;;;;;;7.30;5.53;;;;;;;;;;5056594;28;20044;-79
2022/01/27 06:19:44;;;;;;;8.27;6.18;;;;;;;;;;5055998;28;20400;-79
2022/01/27 06:22:11;;;;;;;8.32;6.88;;;;;;;;;;5055795;28;20548;-79
2022/01/27 06:24:45;;;;;;;8.50;6.28;;;;;;;;;;5054331;28;20032;-79
2022/01/27 06:27:12;;;;;;;7.85;5.85;;;;;;;;;;5055931;28;20094;-79
2022/01/27 06:29:39;;;;;;;7.80;6.15;;;;;;;;;;5054442;28;20083;-79
2022/01/27 06:32:06;;;;;;;8.13;5.55;;;;;;;;;;5059150;28;20024;-79
2022/01/27 06:34:32;;;;;;;9.88;6.30;;;;;;;;;;5074426;28;20068;-79
2022/01/27 06:36:58;;;;;;;7.68;5.57;;;;;;;;;;5074781;28;20031;-79
2022/01/27 06:39:24;;;;;;;8.10;6.30;;;;;;;;;;5075090;28;20068;-79
2022/01/27 06:41:50;;;;;;;8.25;6.22;;;;;;;;;;5073788;28;20082;-77
2022/01/27 06:44:17;;;;;;;9.27;6.25;;;;;;;;;;5074276;28;20044;-78
2022/01/27 06:46:43;;;;;;;9.57;5.68;;;;;;;;;;5074852;28;20027;-78
2022/01/27 06:49:14;;;;;;;7.32;6.05;;;;;;;;;;5073495;28;20073;-77
2022/01/27 06:51:40;;;;;;;8.43;6.18;;;;;;;;;;5073500;28;20057;-77
2022/01/27 06:54:06;;;;;;;9.65;6.30;;;;;;;;;;5056643;28;20029;-78
2022/01/27 06:56:32;;;;;;;10.18;6.82;;;;;;;;;;5054124;28;20021;-78
2022/01/27 06:58:58;;;;;;;8.32;6.10;;;;;;;;;;5053487;28;20041;-77
2022/01/27 07:01:24;;;;;;;10.10;6.15;;;;;;;;;;5052382;28;20021;-77
2022/01/27 07:03:51;;;;;;;8.50;6.18;;;;;;;;;;5055108;28;20032;-77
2022/01/27 07:06:17;;;;;;;8.43;5.70;;;;;;;;;;5054408;28;20047;-77
2022/01/27 07:08:43;;;;;;;9.70;6.07;;;;;;;;;;5054240;28;20028;-77
2022/01/27 07:11:10;;;;;;;10.77;6.57;;;;;;;;;;5053865;28;20462;-77
2022/01/27 07:13:40;;;;;;;10.95;6.68;;;;;;;;;;5052883;28;20036;-77
2022/01/27 07:16:06;;;;;;;8.90;6.10;;;;;;;;;;5054029;28;20036;-77
2022/01/27 07:18:33;;;;;;;9.27;6.38;;;;;;;;;;5039755;28;20026;-77
2022/01/27 07:20:59;;;;;;;8.55;6.75;;;;;;;;;;5034353;28;20052;-77
2022/01/27 07:23:25;;;;;;;10.80;6.40;;;;;;;;;;5033404;28;20489;-77
2022/01/27 07:25:51;;;;;;;7.93;6.03;;;;;;;;;;5033484;28;20100;-77
2022/01/27 07:28:17;;;;;;;9.60;6.38;;;;;;;;;;5033836;28;20025;-77
2022/01/27 07:30:44;;;;;;;7.38;6.07;;;;;;;;;;5034222;28;20105;-77
2022/01/27 07:33:10;;;;;;;9.43;6.28;;;;;;;;;;5033357;28;20025;-78
2022/01/27 07:35:36;;;;;;;9.18;6.80;;;;;;;;;;5034116;28;20029;-78
2022/01/27 07:38:02;;;;;;;10.75;6.53;;;;;;;;;;5064334;28;20025;-78
2022/01/27 07:40:29;;;;;;;9.60;6.63;;;;;;;;;;5054162;28;20032;-77
2022/01/27 07:42:55;;;;;;;9.63;6.63;;;;;;;;;;5036435;28;20029;-78
2022/01/27 07:45:22;;;;;;;11.40;6.65;;;;;;;;;;5038017;28;20489;-78
2022/01/27 07:47:48;;;;;;;10.65;6.40;;;;;;;;;;5049472;28;20025;-78
2022/01/27 07:50:14;;;;;;;10.85;7.20;;;;;;;;;;5033007;28;20029;-78
2022/01/27 07:52:41;;;;;;;9.13;6.40;;;;;;;;;;5036601;28;20017;-78
2022/01/27 07:55:08;;;;;;;13.48;6.47;;;;;;;;;;5039017;28;20037;-77
2022/01/27 07:57:34;;;;;;;8.25;6.10;;;;;;;;;;5045037;28;20067;-78
2022/01/27 08:00:00;;;;;;;7.90;6.25;;;;;;;;;;5052968;28;20033;-78
2022/01/27 08:02:26;;;;;;;8.82;6.28;;;;;;;;;;5053851;28;20476;-79
2022/01/27 08:04:52;;;;;;;9.80;6.60;;;;;;;;;;5041862;28;20060;-80
2022/01/27 08:07:18;;;;;;;8.77;6.68;;;;;;;;;;5049564;28;20052;-80
2022/01/27 08:09:46;;;;;;;9.60;7.20;;;;;;;;;;5055131;28;20475;-80
2022/01/27 08:12:12;;;;;;;12.38;7.28;;;;;;;;;;5051199;28;20020;-79
2022/01/27 08:14:38;;;;;;;9.45;6.65;;;;;;;;;;5045605;28;20044;-79
2022/01/27 08:17:04;;;;;;;10.10;7.30;;;;;;;;;;5053643;28;20055;-78
2022/01/27 08:19:30;;;;;;;12.40;6.97;;;;;;;;;;5055527;28;20056;-78
2022/01/27 08:21:56;;;;;;;10.55;6.55;;;;;;;;;;5052415;28;20024;-78
2022/01/27 08:24:22;;;;;;;9.35;7.28;;;;;;;;;;5033641;28;20508;-78
2022/01/27 08:26:50;;;;;;;12.23;7.60;;;;;;;;;;5044296;28;20115;-78
2022/01/27 08:34:29;;;;;;;12.10;7.53;;;;;;;;;;5053173;28;20037;-78
2022/01/27 08:36:56;;;;;;;12.02;7.85;;;;;;;;;;5051116;28;20032;-78
2022/01/27 08:39:22;;;;;;;10.70;8.02;;;;;;;;;;5049689;28;20021;-78
2022/01/27 08:41:48;;;;;;;13.35;8.68;;;;;;;;;;5064624;28;20368;-78
2022/01/27 08:44:15;;;;;;;15.73;8.13;;;;;;;;;;5073577;28;20031;-78
2022/01/27 08:46:41;;;;;;;14.95;9.30;;;;;;;;;;5059322;28;20029;-78
2022/01/27 08:49:07;;;;;;;13.38;8.00;;;;;;;;;;5052070;28;20037;-78
2022/01/27 08:51:34;;;;;;;13.43;7.88;;;;;;;;;;5032311;28;20040;-78
2022/01/27 08:54:00;;;;;;;14.20;7.72;;;;;;;;;;5050418;28;20029;-78
2022/01/27 08:56:26;;;;;;;16.38;7.78;;;;;;;;;;5050999;28;20492;-78
2022/01/27 08:58:54;;;;;;;13.85;8.38;;;;;;;;;;5051904;28;20040;-78
2022/01/27 09:01:23;;;;;;;16.15;8.40;;;;;;;;;;5051549;28;20063;-78
2022/01/27 09:03:49;;;;;;;18.08;8.85;;;;;;;;;;5048517;28;20021;-79
2022/01/27 09:06:15;;;;;;;13.15;7.22;;;;;;;;;;5045301;28;20082;-80
2022/01/27 09:08:42;;;;;;;13.32;7.43;;;;;;;;;;5048547;28;20025;-80
2022/01/27 09:11:09;;;;;;;14.30;7.95;;;;;;;;;;5050816;28;20045;-79
2022/01/27 09:13:37;;;;;;;15.15;8.27;;;;;;;;;;5052184;28;20028;-80
2022/01/27 09:16:04;;;;;;;15.02;7.45;;;;;;;;;;5056851;28;20584;-80
2022/01/27 09:18:30;;;;;;;14.95;7.72;;;;;;;;;;5055035;28;20040;-80
2022/01/27 09:20:59;;;;;;;14.15;7.90;;;;;;;;;;5046866;28;20427;-81
2022/01/27 09:23:26;;;;;;;14.63;7.50;;;;;;;;;;5048416;28;20451;-80
2022/01/27 09:25:56;;;;;;;14.15;8.18;;;;;;;;;;5051895;28;20025;-81
2022/01/27 09:28:22;;;;;;;14.07;7.65;;;;;;;;;;5051010;28;20032;-81
2022/01/27 09:30:48;;;;;;;12.95;7.13;;;;;;;;;;5044132;28;20684;-81
2022/01/27 09:33:14;;;;;;;15.02;7.45;;;;;;;;;;5046312;28;20021;-80
2022/01/27 09:35:40;;;;;;;18.65;7.57;;;;;;;;;;5053531;28;20480;-81
2022/01/27 09:38:07;;;;;;;14.60;7.13;;;;;;;;;;5048287;28;20040;-81
2022/01/27 09:40:34;;;;;;;12.10;7.72;;;;;;;;;;5053508;28;20029;-81
2022/01/27 09:43:03;;;;;;;17.15;8.07;;;;;;;;;;5054780;28;20017;-82
2022/01/27 09:45:30;;;;;;;15.15;7.13;;;;;;;;;;5054091;28;20021;-82
2022/01/27 09:48:02;;;;;;;16.35;7.32;;;;;;;;;;5055666;28;20029;-81
2022/01/27 09:50:46;;;;;;;10.43;7.20;;;;;;;;;;5053943;28;20083;-82
2022/01/27 09:53:12;;;;;;;10.88;7.00;;;;;;;;;;5054073;28;20071;-82
2022/01/27 09:55:39;;;;;;;14.63;7.18;;;;;;;;;;5055029;28;20048;-82
2022/01/27 09:58:06;;;;;;;11.20;7.03;;;;;;;;;;5045824;28;20520;-82
2022/01/27 10:00:32;;;;;;;11.52;7.13;;;;;;;;;;5046978;28;20029;-82
2022/01/27 10:03:28;;;;;;;10.27;7.40;;;;;;;;;;5053085;28;20454;-82
2022/01/27 10:06:09;;;;;;;11.85;7.25;;;;;;;;;;5053328;28;20096;-81
2022/01/27 10:08:39;;;;;;;12.40;7.63;;;;;;;;;;5044645;28;20034;-82
2022/01/27 10:11:14;;;;;;;13.18;7.43;;;;;;;;;;5055015;28;20025;-81
2022/01/27 10:13:42;;;;;;;11.60;7.25;;;;;;;;;;5048088;28;20033;-81
2022/01/27 10:16:09;;;;;;;12.45;6.28;;;;;;;;;;5054646;28;20512;-81
2022/01/27 10:18:40;;;;;;;10.85;6.93;;;;;;;;;;5049266;28;20502;-81
2022/01/27 10:21:08;;;;;;;10.93;6.45;;;;;;;;;;5053849;28;20388;-81
2022/01/27 10:23:39;;;;;;;11.93;7.22;;;;;;;;;;5053672;28;20039;-81
2022/01/27 10:26:22;;;;;;;13.35;7.55;;;;;;;;;;5045036;28;20477;-80
2022/01/27 10:28:50;;;;;;;;;;;;;;;;;;5047729;28;20560;-81
2022/01/27 10:31:21;;;;;;;11.80;6.90;;;;;;;;;;5053106;28;20000;-81
2022/01/27 10:33:50;;;;;;;10.20;6.82;;;;;;;;;;5043347;28;20021;-81
2022/01/27 10:36:18;;;;;;;12.23;7.80;;;;;;;;;;5043731;28;20045;-82
2022/01/27 10:38:44;;;;;;;10.45;7.60;;;;;;;;;;5050351;28;20476;-81
2022/01/27 10:41:10;;;;;;;11.55;7.18;;;;;;;;;;5049403;28;20056;-81
2022/01/27 10:43:36;;;;;;;11.77;7.28;;;;;;;;;;5050265;28;20017;-81
2022/01/27 10:46:28;;;;;;;14.77;7.22;;;;;;;;;;5035452;28;20052;-82
2022/01/27 10:51:27;;;;;;;9.48;7.25;;;;;;;;;;5050712;28;20123;-81
2022/01/27 10:54:01;;;;;;;12.07;8.27;;;;;;;;;;5045904;28;20036;-82
2022/01/27 10:56:29;;;;;;;14.20;7.18;;;;;;;;;;5052151;28;20017;-80
2022/01/27 10:58:56;;;;;;;10.50;6.53;;;;;;;;;;5036127;28;20428;-79
2022/01/27 11:01:23;;;;;;;9.18;7.32;;;;;;;;;;5051461;28;20021;-79
2022/01/27 11:03:53;;;;;;;13.48;7.45;;;;;;;;;;5049302;28;20029;-80
2022/01/27 11:06:20;;;;;;;9.63;7.40;;;;;;;;;;5049329;28;20036;-79
2022/01/27 11:08:47;;;;;;;11.77;7.05;;;;;;;;;;5046187;28;20369;-80
2022/01/27 11:11:13;;;;;;;10.75;6.95;;;;;;;;;;5045515;28;20028;-80
2022/01/27 11:13:44;;;;;;;9.98;6.82;;;;;;;;;;5050261;28;20053;-80
2022/01/27 11:16:14;;;;;;;11.77;7.32;;;;;;;;;;5048664;28;20045;-80
2022/01/27 11:18:41;;;;;;;10.02;7.57;;;;;;;;;;5049347;28;20104;-81
2022/01/27 11:21:13;;;;;;;9.32;7.43;;;;;;;;;;5051914;28;20025;-81
2022/01/27 11:26:09;;;;;;;10.93;7.10;;;;;;;;;;5053591;28;20032;-82
2022/01/27 11:28:36;;;;;;;9.70;7.05;;;;;;;;;;5051533;28;20028;-81
2022/01/27 11:31:21;;;;;;;11.55;7.18;;;;;;;;;;5045536;28;20162;-82
2022/01/27 11:33:59;;;;;;;8.98;6.55;;;;;;;;;;5043426;28;20117;-81
2022/01/27 11:36:26;;;;;;;13.02;7.63;;;;;;;;;;5044534;28;20024;-81
2022/01/27 11:38:52;;;;;;;11.10;7.70;;;;;;;;;;5040755;28;20109;-80
2022/01/27 11:41:36;;;;;;;10.07;7.78;;;;;;;;;;5044514;28;20044;-81
2022/01/27 11:44:21;;;;;;;12.82;6.93;;;;;;;;;;5045569;28;20067;-80
2022/01/27 11:47:06;;;;;;;11.32;7.63;;;;;;;;;;5051913;28;20776;-80
2022/01/27 11:49:55;;;;;;;10.13;7.57;;;;;;;;;;5050967;28;20054;-80
2022/01/27 11:52:27;;;;;;;9.05;7.65;;;;;;;;;;5049290;28;20033;-81
2022/01/27 11:54:53;;;;;;;10.77;7.40;;;;;;;;;;5050591;28;20048;-81
2022/01/27 11:57:38;;;;;;;9.95;7.10;;;;;;;;;;5052352;28;20549;-80
2022/01/27 12:00:15;;;;;;;9.68;7.40;;;;;;;;;;5050504;28;20032;-80
2022/01/27 12:02:56;;;;;;;8.85;6.47;;;;;;;;;;5042906;28;20091;-80
2022/01/27 12:05:23;;;;;;;9.48;6.70;;;;;;;;;;5044658;28;20028;-80
2022/01/27 12:08:08;;;;;;;10.10;6.80;;;;;;;;;;5052053;28;20029;-79
2022/01/27 12:10:41;;;;;;;10.70;6.80;;;;;;;;;;5051645;28;20033;-80
2022/01/27 12:13:28;;;;;;;12.02;7.22;;;;;;;;;;5051603;28;20028;-80
2022/01/27 12:19:02;;;;;;;9.43;6.82;;;;;;;;;;5042296;28;20057;-79
2022/01/27 12:21:29;;;;;;;9.17;6.80;;;;;;;;;;5035619;28;20018;-80
2022/01/27 12:24:14;;;;;;;8.15;6.15;;;;;;;;;;5050692;28;20267;-81
2022/01/27 12:26:48;;;;;;;10.60;6.22;;;;;;;;;;5049599;28;20029;-81
2022/01/27 12:29:41;;;;;;;7.80;6.75;;;;;;;;;;5050577;28;20012;-80
2022/01/27 12:32:08;;;;;;;11.90;6.40;;;;;;;;;;5043242;28;20044;-81
2022/01/27 12:34:35;;;;;;;8.88;6.35;;;;;;;;;;5051701;28;20377;-80
2022/01/27 12:37:01;;;;;;;11.88;6.63;;;;;;;;;;5052413;28;20456;-80
2022/01/27 12:39:28;;;;;;;9.38;6.63;;;;;;;;;;5053356;28;20013;-80
2022/01/27 12:41:55;;;;;;;9.38;6.47;;;;;;;;;;5051222;28;20021;-80
2022/01/27 12:44:22;;;;;;;9.75;6.93;;;;;;;;;;5044328;28;20112;-80
2022/01/27 12:47:10;;;;;;;9.32;6.68;;;;;;;;;;5041947;28;20036;-81
2022/01/27 12:49:38;;;;;;;11.27;7.10;;;;;;;;;;5044213;28;20025;-80
2022/01/27 12:52:08;;;;;;;9.38;6.88;;;;;;;;;;5053421;28;20025;-80
2022/01/27 12:54:35;;;;;;;11.23;7.57;;;;;;;;;;5052588;28;20040;-80
2022/01/27 12:57:02;;;;;;;10.70;7.05;;;;;;;;;;5056296;28;20025;-81
2022/01/27 12:59:32;;;;;;;8.77;5.93;;;;;;;;;;5052718;28;20063;-81
2022/01/27 13:01:59;;;;;;;10.73;6.82;;;;;;;;;;5046000;28;20056;-80
2022/01/27 13:04:26;;;;;;;10.23;6.50;;;;;;;;;;5048720;28;20025;-78
2022/01/27 13:06:56;;;;;;;10.30;6.88;;;;;;;;;;5051650;28;20503;-80
2022/01/27 13:09:23;;;;;;;9.68;6.57;;;;;;;;;;5061360;28;20025;-81
2022/01/27 13:11:52;;;;;;;8.73;5.93;;;;;;;;;;5048893;28;20582;-81
2022/01/27 13:14:19;;;;;;;9.82;6.45;;;;;;;;;;5047780;28;20388;-81
2022/01/27 13:16:56;;;;;;;8.52;6.65;;;;;;;;;;5036927;28;20026;-80
2022/01/27 13:19:37;;;;;;;9.10;6.13;;;;;;;;;;5042932;28;20332;-80
2022/01/27 13:22:06;;;;;;;8.38;6.78;;;;;;;;;;5049876;28;20013;-81
2022/01/27 13:24:34;;;;;;;11.50;6.70;;;;;;;;;;5050546;28;20055;-81
2022/01/27 13:27:04;;;;;;;10.48;6.72;;;;;;;;;;5053153;28;20025;-81
2022/01/27 13:29:38;;;;;;;7.78;6.60;;;;;;;;;;5044842;28;20068;-81
2022/01/27 13:32:05;;;;;;;8.80;6.82;;;;;;;;;;5043607;28;20071;-81
2022/01/27 13:34:32;;;;;;;9.20;6.72;;;;;;;;;;5049064;28;20045;-80
2022/01/27 13:36:59;;;;;;;10.93;7.55;;;;;;;;;;5054749;28;20017;-81
2022/01/27 13:39:47;;;;;;;11.02;7.18;;;;;;;;;;5054838;28;20032;-81
2022/01/27 13:42:13;;;;;;;9.63;6.65;;;;;;;;;;5046869;28;20350;-80
2022/01/27 13:44:56;;;;;;;9.25;6.43;;;;;;;;;;5052362;28;20539;-81
2022/01/27 13:47:26;;;;;;;8.60;7.35;;;;;;;;;;5049457;28;20087;-80
2022/01/27 13:49:53;;;;;;;11.18;7.70;;;;;;;;;;5040441;28;20124;-81
2022/01/27 13:52:20;;;;;;;9.25;7.00;;;;;;;;;;5048166;28;20144;-80
2022/01/27 13:54:50;;;;;;;10.63;7.20;;;;;;;;;;5049346;28;20025;-80
2022/01/27 13:57:25;;;;;;;9.38;6.78;;;;;;;;;;5054184;28;20104;-81
2022/01/27 13:59:58;;;;;;;10.48;7.25;;;;;;;;;;5046767;28;20041;-80
2022/01/27 14:02:24;;;;;;;;;;;;;;;;;;5038262;28;20026;-80
2022/01/27 14:04:51;;;;;;;12.48;8.10;;;;;;;;;;5053307;28;20257;-80
2022/01/27 14:07:43;;;;;;;13.48;8.10;;;;;;;;;;5053666;28;20025;-79
2022/01/27 14:10:12;;;;;;;12.20;6.88;;;;;;;;;;5046408;28;20033;-79
2022/01/27 14:13:03;;;;;;;11.38;7.40;;;;;;;;;;5049079;28;20086;-79
2022/01/27 14:15:41;;;;;;;10.35;6.95;;;;;;;;;;5053782;28;20041;-79
2022/01/27 14:18:15;;;;;;;12.25;7.10;;;;;;;;;;5046339;28;20065;-79
2022/01/27 14:20:51;;;;;;;9.38;6.53;;;;;;;;;;5053204;28;20021;-79
2022/01/27 14:23:21;;;;;;;10.70;6.60;;;;;;;;;;5049375;28;20112;-79
2022/01/27 14:25:53;;;;;;;9.57;6.35;;;;;;;;;;5047269;28;20021;-79
2022/01/27 14:28:19;;;;;;;10.27;6.75;;;;;;;;;;5033702;28;20068;-79
2022/01/27 14:30:45;;;;;;;11.38;7.07;;;;;;;;;;5045471;28;20060;-79
2022/01/27 14:33:11;;;;;;;8.85;6.38;;;;;;;;;;5066270;28;20035;-79
2022/01/27 14:35:38;;;;;;;11.07;7.18;;;;;;;;;;5073990;28;20021;-79
2022/01/27 14:38:04;;;;;;;10.27;7.35;;;;;;;;;;5062116;28;20028;-79
2022/01/27 14:40:31;;;;;;;10.07;7.10;;;;;;;;;;5053050;28;20060;-78
2022/01/27 14:43:00;;;;;;;11.02;7.30;;;;;;;;;;5050159;28;20028;-79
2022/01/27 14:45:27;;;;;;;10.40;6.63;;;;;;;;;;5044509;28;20028;-78
2022/01/27 14:47:59;;;;;;;10.50;6.57;;;;;;;;;;5044380;28;20034;-78
2022/01/27 14:50:25;;;;;;;10.23;7.20;;;;;;;;;;5035467;28;20160;-79
2022/01/27 14:52:52;;;;;;;10.38;7.32;;;;;;;;;;5037808;28;20444;-78
2022/01/27 14:55:18;;;;;;;10.27;7.10;;;;;;;;;;5052414;28;20058;-79
2022/01/27 14:57:45;;;;;;;10.40;7.38;;;;;;;;;;5053787;28;20045;-78
2022/01/27 15:00:14;;;;;;;12.25;7.50;;;;;;;;;;5054454;28;20020;-79
2022/01/27 15:02:40;;;;;;;12.63;7.90;;;;;;;;;;5054711;28;20025;-79
2022/01/27 15:05:06;;;;;;;11.77;7.63;;;;;;;;;;5054619;28;20028;-78
2022/01/27 15:07:33;;;;;;;12.98;8.60;;;;;;;;;;5054803;28;20033;-79
2022/01/27 15:09:59;;;;;;;12.35;7.50;;;;;;;;;;5043124;28;20096;-79
2022/01/27 15:12:25;;;;;;;9.95;6.05;;;;;;;;;;5046229;28;20083;-79
2022/01/27 15:20:35;;;;;;;10.90;6.63;;;;;;;;;;5063922;28;20025;-79
2022/01/27 15:23:02;;;;;;;10.68;6.50;;;;;;;;;;5052058;28;20480;-79
2022/01/27 15:25:28;;;;;;;10.48;6.70;;;;;;;;;;5054644;28;20024;-79
2022/01/27 15:27:55;;;;;;;9.43;6.60;;;;;;;;;;5052908;28;20048;-79
2022/01/27 15:30:21;;;;;;;11.95;6.63;;;;;;;;;;5047884;28;20056;-79
2022/01/27 15:32:49;;;;;;;10.35;7.07;;;;;;;;;;5042202;28;20037;-79
2022/01/27 15:35:16;;;;;;;12.38;7.35;;;;;;;;;;5041258;28;20034;-78
2022/01/27 15:37:43;;;;;;;10.73;7.45;;;;;;;;;;5046493;28;20044;-79
2022/01/27 15:40:19;;;;;;;10.63;6.30;;;;;;;;;;5051647;28;20024;-79
2022/01/27 15:42:46;;;;;;;9.73;6.40;;;;;;;;;;5036295;28;20167;-79
2022/01/27 15:45:13;;;;;;;11.73;7.00;;;;;;;;;;5052187;28;20075;-79
2022/01/27 15:47:39;;;;;;;11.63;6.50;;;;;;;;;;5037225;28;20029;-79
2022/01/27 15:50:06;;;;;;;10.25;6.85;;;;;;;;;;5047397;28;20427;-79
2022/01/27 15:52:33;;;;;;;10.52;7.05;;;;;;;;;;5050325;28;20036;-79
2022/01/27 15:55:00;;;;;;;13.20;6.93;;;;;;;;;;5053851;28;20073;-79